createdAt,value
2022-11-14T00:00:50.239Z,78.20
2022-11-14T00:03:36.374Z,78.20
2022-11-14T00:06:21.806Z,78.20
2022-11-14T00:09:07.899Z,78.10
2022-11-14T00:11:53.899Z,78.10
2022-11-14T00:14:40.090Z,78.20
2022-11-14T00:17:25.531Z,78.10
2022-11-14T00:20:13.136Z,78.00
2022-11-14T00:22:58.820Z,78.10
2022-11-14T00:25:46.103Z,78.20
2022-11-14T00:28:31.723Z,78.10
2022-11-14T00:31:17.721Z,78.20
2022-11-14T00:34:02.892Z,78.30
2022-11-14T00:36:48.842Z,78.10
2022-11-14T00:39:34.083Z,78.10
2022-11-14T00:42:19.935Z,78.20
2022-11-14T00:45:06.071Z,78.10
2022-11-14T00:47:51.400Z,78.00
2022-11-14T00:50:37.905Z,77.90
2022-11-14T00:53:23.597Z,77.80
2022-11-14T00:56:08.891Z,77.90
2022-11-14T00:58:54.927Z,77.80
2022-11-14T01:01:40.262Z,77.80
2022-11-14T01:04:25.952Z,77.70
2022-11-14T01:07:11.436Z,77.70
2022-11-14T01:09:57.069Z,77.70
2022-11-14T01:12:42.499Z,77.80
2022-11-14T01:15:28.425Z,78.00
2022-11-14T01:18:17.803Z,79.00
2022-11-14T01:21:10.284Z,78.40
2022-11-14T01:23:55.893Z,78.60
2022-11-14T01:26:41.595Z,78.40
2022-11-14T01:29:27.589Z,78.50
2022-11-14T01:32:13.436Z,78.60
2022-11-14T01:34:58.725Z,78.60
2022-11-14T01:37:44.564Z,78.60
2022-11-14T01:40:30.489Z,78.70
2022-11-14T01:43:19.745Z,78.80
2022-11-14T01:46:42.236Z,79.00
2022-11-14T01:49:41.956Z,80.00
2022-11-14T01:52:36.125Z,79.90
2022-11-14T01:55:21.953Z,81.10
2022-11-14T01:58:07.687Z,80.60
2022-11-14T02:00:53.299Z,80.90
2022-11-14T02:03:40.542Z,81.10
2022-11-14T02:06:30.096Z,81.40
2022-11-14T02:09:16.177Z,81.60
2022-11-14T02:12:06.683Z,81.70
2022-11-14T02:14:56.056Z,81.70
2022-11-14T02:17:43.095Z,81.60
2022-11-14T02:20:35.878Z,81.50
2022-11-14T02:23:28.097Z,81.20
2022-11-14T02:26:13.441Z,81.10
2022-11-14T02:28:59.369Z,80.90
2022-11-14T02:31:44.487Z,80.80
2022-11-14T02:34:30.288Z,80.80
2022-11-14T02:37:15.516Z,80.90
2022-11-14T02:40:01.318Z,80.80
2022-11-14T02:42:47.055Z,80.70
2022-11-14T02:45:33.025Z,80.60
2022-11-14T02:48:18.690Z,80.50
2022-11-14T02:51:04.395Z,80.40
2022-11-14T02:53:49.754Z,80.20
2022-11-14T02:56:35.583Z,80.00
2022-11-14T02:59:20.975Z,79.70
2022-11-14T03:02:06.975Z,79.60
2022-11-14T03:04:52.234Z,79.60
2022-11-14T03:07:37.866Z,79.80
2022-11-14T03:10:24.492Z,80.00
2022-11-14T03:13:10.695Z,80.20
2022-11-14T03:15:56.489Z,80.30
2022-11-14T03:18:42.490Z,80.50
2022-11-14T03:21:27.894Z,80.60
2022-11-14T03:24:13.584Z,81.20
2022-11-14T03:26:58.871Z,80.50
2022-11-14T03:29:44.496Z,80.50
2022-11-14T03:32:29.789Z,80.40
2022-11-14T03:35:15.627Z,80.40
2022-11-14T03:38:01.177Z,80.40
2022-11-14T03:40:47.120Z,80.40
2022-11-14T03:43:34.232Z,80.90
2022-11-14T03:46:20.557Z,80.00
2022-11-14T03:49:06.314Z,79.90
2022-11-14T03:51:52.142Z,79.90
2022-11-14T03:54:38.256Z,80.10
2022-11-14T03:57:24.126Z,80.30
2022-11-14T04:00:10.632Z,80.30
2022-11-14T04:02:57.942Z,80.30
2022-11-14T04:05:46.421Z,80.40
2022-11-14T04:08:33.217Z,80.50
2022-11-14T04:11:19.695Z,80.30
2022-11-14T04:14:05.701Z,80.40
2022-11-14T04:16:51.343Z,80.10
2022-11-14T04:19:36.762Z,80.30
2022-11-14T04:22:21.939Z,80.40
2022-11-14T04:25:09.589Z,80.50
2022-11-14T04:27:55.108Z,80.60
2022-11-14T04:30:42.133Z,80.60
2022-11-14T04:33:27.880Z,80.60
2022-11-14T04:36:13.547Z,80.80
2022-11-14T04:38:59.160Z,80.30
2022-11-14T04:41:45.336Z,80.60
2022-11-14T04:44:31.039Z,80.50
2022-11-14T04:47:16.493Z,80.50
2022-11-14T04:50:02.134Z,80.50
2022-11-14T04:52:47.644Z,80.60
2022-11-14T04:55:33.101Z,80.60
2022-11-14T04:58:18.367Z,80.70
2022-11-14T05:01:11.441Z,80.70
2022-11-14T05:03:57.344Z,80.80
2022-11-14T05:06:42.959Z,80.70
2022-11-14T05:09:29.128Z,80.60
2022-11-14T05:12:14.479Z,80.70
2022-11-14T05:15:00.540Z,80.60
2022-11-14T05:17:46.001Z,80.60
2022-11-14T05:20:31.467Z,80.50
2022-11-14T05:23:23.307Z,80.50
2022-11-14T05:26:15.773Z,80.40
2022-11-14T05:29:01.411Z,80.40
2022-11-14T05:31:47.084Z,80.30
2022-11-14T05:34:32.660Z,80.10
2022-11-14T05:37:18.655Z,80.00
2022-11-14T05:40:05.335Z,80.00
2022-11-14T05:42:50.660Z,80.00
2022-11-14T05:45:36.031Z,79.80
2022-11-14T05:48:21.574Z,79.80
2022-11-14T05:51:10.530Z,79.70
2022-11-14T05:53:56.071Z,79.60
2022-11-14T05:56:41.348Z,79.50
2022-11-14T05:59:27.629Z,79.50
2022-11-14T06:02:14.304Z,79.40
2022-11-14T06:05:00.000Z,79.80
2022-11-14T06:07:46.861Z,79.10
2022-11-14T06:10:35.238Z,79.10
2022-11-14T06:13:21.022Z,79.20
2022-11-14T06:16:13.157Z,79.20
2022-11-14T06:18:58.848Z,79.20
2022-11-14T06:21:44.390Z,79.10
2022-11-14T06:24:30.010Z,79.00
2022-11-14T06:27:15.574Z,79.00
2022-11-14T06:30:01.154Z,79.00
2022-11-14T06:32:46.818Z,79.00
2022-11-14T06:35:33.294Z,79.10
2022-11-14T06:38:18.919Z,79.00
2022-11-14T06:41:10.165Z,79.20
2022-11-14T06:43:55.983Z,79.10
2022-11-14T06:46:41.614Z,79.10
2022-11-14T06:49:27.893Z,79.20
2022-11-14T06:52:13.711Z,79.30
2022-11-14T06:54:59.724Z,79.30
2022-11-14T06:57:45.499Z,79.20
2022-11-14T07:00:31.145Z,79.30
2022-11-14T07:03:16.619Z,80.10
2022-11-14T07:06:03.994Z,79.40
2022-11-14T07:08:50.061Z,79.50
2022-11-14T07:11:36.538Z,79.60
2022-11-14T07:14:22.617Z,79.40
2022-11-14T07:17:08.340Z,79.50
2022-11-14T07:19:53.751Z,79.50
2022-11-14T07:22:39.736Z,79.70
2022-11-14T07:25:25.370Z,79.70
2022-11-14T07:28:10.873Z,79.50
2022-11-14T07:30:56.760Z,79.50
2022-11-14T07:33:44.148Z,79.40
2022-11-14T07:36:29.808Z,79.30
2022-11-14T07:39:15.802Z,79.20
2022-11-14T07:42:01.530Z,79.20
2022-11-14T07:44:46.953Z,79.20
2022-11-14T07:47:32.252Z,79.20
2022-11-14T07:50:20.366Z,79.20
2022-11-14T07:53:06.511Z,79.10
2022-11-14T07:55:51.967Z,78.90
2022-11-14T07:58:41.835Z,78.70
2022-11-14T08:01:27.995Z,78.50
2022-11-14T08:04:14.150Z,78.30
2022-11-14T08:07:01.460Z,78.20
2022-11-14T08:09:47.876Z,78.00
2022-11-14T08:12:33.430Z,78.10
2022-11-14T08:15:18.938Z,78.00
2022-11-14T08:18:04.940Z,78.20
2022-11-14T08:20:50.459Z,78.40
2022-11-14T08:23:35.990Z,78.50
2022-11-14T08:26:21.421Z,78.60
2022-11-14T08:29:07.943Z,78.70
2022-11-14T08:31:57.117Z,78.90
2022-11-14T08:34:45.823Z,78.50
2022-11-14T08:37:31.151Z,77.90
2022-11-14T08:40:17.276Z,77.50
2022-11-14T08:43:03.215Z,77.30
2022-11-14T08:45:48.828Z,76.60
2022-11-14T08:48:34.717Z,75.50
2022-11-14T08:51:20.583Z,74.60
2022-11-14T08:54:06.857Z,73.80
2022-11-14T08:56:52.539Z,73.10
2022-11-14T08:59:37.940Z,73.30
2022-11-14T09:02:23.888Z,72.10
2022-11-14T09:05:09.275Z,71.60
2022-11-14T09:07:55.410Z,71.50
2022-11-14T09:10:41.382Z,70.90
2022-11-14T09:13:27.711Z,70.50
2022-11-14T09:16:13.425Z,70.20
2022-11-14T09:18:59.107Z,69.50
2022-11-14T09:21:44.828Z,68.60
2022-11-14T09:24:30.451Z,67.60
2022-11-14T09:27:17.174Z,66.70
2022-11-14T09:30:03.841Z,65.50
2022-11-14T09:32:50.496Z,64.50
2022-11-14T09:35:37.874Z,63.80
2022-11-14T09:38:23.621Z,63.00
2022-11-14T09:41:21.569Z,61.30
2022-11-14T09:44:33.290Z,60.30
2022-11-14T09:47:30.551Z,57.90
2022-11-14T09:50:34.472Z,56.30
2022-11-14T09:53:26.752Z,55.40
2022-11-14T09:56:26.127Z,56.00
2022-11-14T09:59:13.443Z,53.50
2022-11-14T10:02:19.389Z,52.70
2022-11-14T10:05:16.773Z,51.10
2022-11-14T10:08:37.185Z,50.10
2022-11-14T10:11:38.939Z,48.70
2022-11-14T10:15:05.532Z,48.60
2022-11-14T10:18:33.554Z,47.10
2022-11-14T10:21:40.673Z,46.20
2022-11-14T10:24:54.054Z,45.90
2022-11-14T10:28:04.869Z,44.50
2022-11-14T10:31:02.849Z,43.60
2022-11-14T10:33:57.730Z,43.60
2022-11-14T10:37:05.133Z,43.50
2022-11-14T10:39:55.444Z,42.40
2022-11-14T10:42:45.554Z,42.20
2022-11-14T10:46:16.156Z,41.80
2022-11-14T10:49:02.346Z,39.60
2022-11-14T10:51:54.410Z,40.70
2022-11-14T10:54:56.213Z,39.20
2022-11-14T10:57:43.834Z,38.30
2022-11-14T11:00:30.077Z,38.90
2022-11-14T11:03:15.836Z,38.20
2022-11-14T11:06:03.116Z,38.20
2022-11-14T11:09:06.911Z,37.80
2022-11-14T11:11:59.001Z,37.40
2022-11-14T11:14:46.979Z,35.90
2022-11-14T11:17:38.561Z,35.80
2022-11-14T11:20:37.941Z,35.70
2022-11-14T11:23:28.183Z,34.60
2022-11-14T11:26:28.553Z,33.80
2022-11-14T11:29:18.569Z,33.50
2022-11-14T11:32:04.493Z,33.30
2022-11-14T11:34:51.392Z,33.60
2022-11-14T11:37:57.159Z,33.90
2022-11-14T11:40:46.743Z,30.80
2022-11-14T11:43:45.670Z,31.30
2022-11-14T11:46:44.993Z,31.30
2022-11-14T11:49:30.755Z,30.80
2022-11-14T11:52:36.095Z,31.50
2022-11-14T11:55:30.857Z,30.50
2022-11-14T11:58:55.509Z,30.60
2022-11-14T12:01:41.113Z,29.40
2022-11-14T12:04:26.622Z,30.70
2022-11-14T12:07:19.775Z,31.10
2022-11-14T12:10:22.153Z,30.50
2022-11-14T12:13:51.471Z,30.10
2022-11-14T12:16:55.145Z,30.00
2022-11-14T12:20:14.370Z,29.60
2022-11-14T12:23:12.367Z,28.80
2022-11-14T12:26:48.082Z,29.10
2022-11-14T12:30:17.526Z,28.90
2022-11-14T12:33:28.854Z,29.30
2022-11-14T12:36:14.724Z,29.40
2022-11-14T12:39:02.008Z,29.90
2022-11-14T12:41:48.568Z,30.30
2022-11-14T12:44:38.281Z,30.50
2022-11-14T12:47:27.649Z,30.40
2022-11-14T12:50:41.900Z,30.60
2022-11-14T12:53:36.177Z,30.40
2022-11-14T12:56:31.028Z,30.90
2022-11-14T12:59:25.932Z,30.90
2022-11-14T13:02:58.934Z,31.20
2022-11-14T13:05:53.648Z,31.10
2022-11-14T13:09:15.319Z,31.50
2022-11-14T13:12:58.194Z,31.70
2022-11-14T13:16:14.045Z,32.10
2022-11-14T13:19:30.810Z,32.70
2022-11-14T13:22:24.090Z,33.10
2022-11-14T13:25:09.905Z,33.40
2022-11-14T13:28:21.733Z,33.60
2022-11-14T13:31:16.700Z,33.90
2022-11-14T13:34:33.093Z,33.80
2022-11-14T13:38:03.720Z,33.90
2022-11-14T13:41:41.356Z,34.00
2022-11-14T13:45:01.678Z,33.80
2022-11-14T13:48:21.006Z,34.10
2022-11-14T13:51:41.314Z,34.30
2022-11-14T13:54:18.563Z,34.70
2022-11-14T13:57:18.384Z,35.00
2022-11-14T14:00:19.976Z,35.40
2022-11-14T14:03:51.991Z,35.70
2022-11-14T14:07:17.493Z,36.20
2022-11-14T14:10:31.874Z,36.70
2022-11-14T14:13:55.585Z,37.30
2022-11-14T14:17:02.523Z,37.90
2022-11-14T14:20:22.313Z,38.40
2022-11-14T14:23:29.874Z,39.40
2022-11-14T14:26:48.324Z,40.10
2022-11-14T14:30:08.844Z,40.90
2022-11-14T14:33:15.277Z,41.70
2022-11-14T14:36:00.841Z,42.50
2022-11-14T14:38:47.767Z,42.70
2022-11-14T14:41:34.822Z,43.60
2022-11-14T14:44:22.271Z,44.10
2022-11-14T14:47:39.987Z,44.20
2022-11-14T14:50:42.550Z,45.00
2022-11-14T14:53:31.816Z,45.70
2022-11-14T14:56:24.978Z,45.80
2022-11-14T14:59:23.910Z,46.70
2022-11-14T15:02:17.503Z,47.60
2022-11-14T15:05:05.525Z,47.80
2022-11-14T15:07:55.483Z,48.00
2022-11-14T15:10:42.059Z,48.70
2022-11-14T15:13:30.202Z,49.20
2022-11-14T15:16:16.235Z,49.80
2022-11-14T15:19:02.630Z,50.10
2022-11-14T15:22:25.942Z,50.70
2022-11-14T15:25:19.449Z,52.00
2022-11-14T15:28:18.003Z,51.70
2022-11-14T15:31:05.239Z,52.50
2022-11-14T15:34:27.825Z,52.60
2022-11-14T15:37:16.452Z,53.70
2022-11-14T15:40:23.262Z,53.60
2022-11-14T15:43:43.780Z,54.70
2022-11-14T15:46:35.898Z,55.20
2022-11-14T15:49:25.679Z,55.10
2022-11-14T15:52:25.095Z,55.40
2022-11-14T15:55:21.489Z,56.30
2022-11-14T15:58:28.909Z,56.40
2022-11-14T16:01:20.401Z,56.90
2022-11-14T16:04:06.130Z,57.00
2022-11-14T16:06:51.772Z,56.60
2022-11-14T16:09:37.306Z,57.20
2022-11-14T16:12:22.835Z,57.90
2022-11-14T16:15:09.659Z,58.40
2022-11-14T16:17:55.132Z,58.80
2022-11-14T16:20:41.860Z,59.30
2022-11-14T16:23:27.623Z,59.70
2022-11-14T16:26:13.427Z,60.20
2022-11-14T16:28:58.823Z,61.30
2022-11-14T16:31:44.769Z,61.00
2022-11-14T16:34:30.176Z,61.60
2022-11-14T16:37:16.425Z,62.10
2022-11-14T16:40:02.215Z,62.70
2022-11-14T16:42:49.827Z,63.20
2022-11-14T16:45:40.585Z,63.60
2022-11-14T16:48:26.122Z,64.30
2022-11-14T16:51:33.244Z,64.40
2022-11-14T16:54:19.158Z,64.90
2022-11-14T16:57:04.754Z,65.30
2022-11-14T16:59:51.779Z,65.80
2022-11-14T17:02:37.583Z,66.10
2022-11-14T17:05:23.503Z,66.40
2022-11-14T17:08:09.536Z,66.60
2022-11-14T17:10:54.944Z,67.10
2022-11-14T17:13:40.600Z,68.10
2022-11-14T17:16:26.485Z,67.60
2022-11-14T17:19:11.695Z,67.90
2022-11-14T17:21:57.039Z,68.30
2022-11-14T17:24:42.796Z,68.60
2022-11-14T17:27:28.570Z,68.80
2022-11-14T17:30:15.596Z,69.10
2022-11-14T17:33:01.424Z,69.40
2022-11-14T17:35:46.867Z,70.10
2022-11-14T17:38:37.282Z,69.00
2022-11-14T17:41:23.228Z,69.60
2022-11-14T17:44:10.001Z,70.00
2022-11-14T17:46:55.773Z,70.30
2022-11-14T17:49:41.673Z,70.60
2022-11-14T17:52:27.436Z,71.00
2022-11-14T17:55:13.115Z,71.30
2022-11-14T17:57:59.030Z,71.70
2022-11-14T18:00:44.545Z,72.20
2022-11-14T18:03:29.958Z,72.50
2022-11-14T18:06:19.436Z,72.70
2022-11-14T18:09:08.144Z,72.90
2022-11-14T18:11:56.146Z,73.00
2022-11-14T18:14:41.795Z,73.10
2022-11-14T18:17:27.540Z,73.20
2022-11-14T18:20:13.008Z,73.40
2022-11-14T18:22:58.650Z,73.60
2022-11-14T18:25:44.011Z,73.80
2022-11-14T18:28:29.842Z,74.10
2022-11-14T18:31:15.483Z,74.40
2022-11-14T18:34:02.888Z,74.50
2022-11-14T18:36:48.734Z,74.50
2022-11-14T18:39:34.585Z,74.70
2022-11-14T18:42:19.924Z,74.90
2022-11-14T18:45:06.228Z,75.00
2022-11-14T18:47:51.876Z,75.10
2022-11-14T18:50:37.355Z,75.30
2022-11-14T18:53:23.475Z,75.40
2022-11-14T18:56:12.792Z,75.40
2022-11-14T18:58:58.433Z,75.70
2022-11-14T19:01:44.570Z,75.70
2022-11-14T19:04:30.002Z,75.80
2022-11-14T19:07:15.430Z,75.80
2022-11-14T19:10:01.312Z,76.60
2022-11-14T19:12:50.418Z,76.00
2022-11-14T19:15:36.279Z,76.10
2022-11-14T19:18:22.166Z,76.10
2022-11-14T19:21:07.508Z,76.30
2022-11-14T19:23:55.890Z,76.30
2022-11-14T19:26:41.488Z,76.50
2022-11-14T19:29:26.790Z,76.70
2022-11-14T19:32:12.287Z,76.70
2022-11-14T19:34:57.772Z,76.80
2022-11-14T19:37:43.164Z,76.90
2022-11-14T19:40:30.126Z,76.90
2022-11-14T19:43:15.486Z,76.90
2022-11-14T19:46:04.137Z,77.10
2022-11-14T19:48:49.979Z,77.20
2022-11-14T19:51:35.497Z,77.50
2022-11-14T19:54:20.959Z,77.60
2022-11-14T19:57:07.106Z,77.70
2022-11-14T19:59:52.432Z,77.80
2022-11-14T20:02:40.503Z,77.90
2022-11-14T20:05:25.968Z,77.80
2022-11-14T20:08:11.773Z,77.90
2022-11-14T20:11:05.496Z,78.00
2022-11-14T20:13:51.439Z,78.30
2022-11-14T20:16:37.356Z,78.20
2022-11-14T20:19:22.974Z,78.30
2022-11-14T20:22:08.635Z,78.40
2022-11-14T20:24:53.993Z,78.50
2022-11-14T20:27:39.492Z,78.50
2022-11-14T20:30:25.146Z,78.50
2022-11-14T20:33:11.661Z,78.70
2022-11-14T20:36:03.793Z,78.90
2022-11-14T20:38:50.346Z,78.80
2022-11-14T20:41:36.294Z,78.70
2022-11-14T20:44:21.830Z,78.80
2022-11-14T20:47:10.993Z,78.90
2022-11-14T20:49:56.983Z,79.00
2022-11-14T20:52:45.538Z,78.80
2022-11-14T20:55:31.142Z,78.90
2022-11-14T20:58:17.473Z,78.90
2022-11-14T21:01:02.769Z,79.00
2022-11-14T21:03:48.917Z,79.00
2022-11-14T21:06:34.220Z,79.00
2022-11-14T21:09:19.642Z,79.10
2022-11-14T21:12:05.476Z,79.10
2022-11-14T21:14:51.259Z,79.10
2022-11-14T21:17:36.497Z,79.10
2022-11-14T21:20:24.868Z,79.10
2022-11-14T21:23:10.427Z,79.70
2022-11-14T21:26:10.936Z,78.80
2022-11-14T21:29:03.066Z,79.80
2022-11-14T21:31:48.897Z,78.80
2022-11-14T21:34:34.479Z,78.80
2022-11-14T21:37:20.342Z,78.90
2022-11-14T21:40:06.545Z,78.90
2022-11-14T21:42:53.146Z,79.10
2022-11-14T21:45:38.435Z,79.20
2022-11-14T21:48:25.292Z,79.30
2022-11-14T21:51:25.091Z,79.10
2022-11-14T21:54:10.740Z,79.20
2022-11-14T21:56:56.664Z,79.10
2022-11-14T21:59:42.457Z,79.20
2022-11-14T22:02:46.597Z,79.20
2022-11-14T22:05:32.550Z,79.30
2022-11-14T22:08:18.215Z,79.30
2022-11-14T22:11:03.910Z,79.40
2022-11-14T22:13:50.050Z,79.40
2022-11-14T22:16:36.117Z,79.50
2022-11-14T22:19:21.614Z,79.50
2022-11-14T22:22:08.104Z,79.50
2022-11-14T22:24:53.463Z,79.70
2022-11-14T22:27:39.440Z,79.60
2022-11-14T22:30:24.626Z,79.70
2022-11-14T22:33:10.423Z,79.80
2022-11-14T22:36:11.688Z,79.80
2022-11-14T22:38:57.820Z,80.00
2022-11-14T22:41:43.385Z,80.00
2022-11-14T22:44:28.928Z,80.10
2022-11-14T22:47:14.565Z,80.10
2022-11-14T22:50:00.826Z,80.30
2022-11-14T22:52:46.249Z,80.40
2022-11-14T22:55:32.243Z,80.40
2022-11-14T22:58:17.703Z,80.50
2022-11-14T23:01:16.330Z,80.50
2022-11-14T23:04:04.724Z,80.60
2022-11-14T23:06:50.817Z,80.50
2022-11-14T23:09:36.095Z,80.60
2022-11-14T23:12:21.934Z,80.60
2022-11-14T23:15:07.646Z,80.70
2022-11-14T23:17:53.707Z,80.60
2022-11-14T23:20:39.120Z,80.80
2022-11-14T23:23:24.672Z,80.80
2022-11-14T23:26:19.002Z,80.80
2022-11-14T23:29:04.840Z,80.80
2022-11-14T23:31:50.435Z,80.80
2022-11-14T23:34:36.609Z,80.80
2022-11-14T23:37:22.008Z,80.80
2022-11-14T23:40:08.659Z,80.90
2022-11-14T23:42:54.075Z,80.90
2022-11-14T23:45:43.037Z,80.90
2022-11-14T23:48:28.550Z,81.00
2022-11-14T23:51:14.684Z,80.90
2022-11-14T23:54:00.170Z,81.00
2022-11-14T23:56:45.979Z,80.90
2022-11-14T23:59:31.244Z,81.00
